sensor_id;sensor_type;location;lat;lon;timestamp;P1;durP1;ratioP1;P2;durP2;ratioP2
43457;SDS011;29046;54.184;18.680;2023-05-14T00:01:16;12.15;;;5.32;;
43457;SDS011;29046;54.184;18.680;2023-05-14T00:03:43;15.00;;;5.18;;
43457;SDS011;29046;54.184;18.680;2023-05-14T00:06:11;10.55;;;4.97;;
43457;SDS011;29046;54.184;18.680;2023-05-14T00:08:38;15.25;;;5.43;;
43457;SDS011;29046;54.184;18.680;2023-05-14T00:11:06;7.93;;;4.85;;
43457;SDS011;29046;54.184;18.680;2023-05-14T00:13:34;13.65;;;5.55;;
43457;SDS011;29046;54.184;18.680;2023-05-14T00:16:02;11.25;;;6.75;;
43457;SDS011;29046;54.184;18.680;2023-05-14T00:18:29;12.45;;;6.03;;
43457;SDS011;29046;54.184;18.680;2023-05-14T00:20:57;12.32;;;6.00;;
43457;SDS011;29046;54.184;18.680;2023-05-14T00:23:24;13.82;;;7.68;;
43457;SDS011;29046;54.184;18.680;2023-05-14T00:25:52;10.00;;;5.72;;
43457;SDS011;29046;54.184;18.680;2023-05-14T00:28:19;13.73;;;6.80;;
43457;SDS011;29046;54.184;18.680;2023-05-14T00:30:47;10.07;;;5.75;;
43457;SDS011;29046;54.184;18.680;2023-05-14T00:33:14;13.52;;;7.05;;
43457;SDS011;29046;54.184;18.680;2023-05-14T00:35:42;15.80;;;7.05;;
43457;SDS011;29046;54.184;18.680;2023-05-14T00:38:09;10.10;;;6.38;;
43457;SDS011;29046;54.184;18.680;2023-05-14T00:40:42;11.63;;;5.43;;
43457;SDS011;29046;54.184;18.680;2023-05-14T00:43:11;8.93;;;5.43;;
43457;SDS011;29046;54.184;18.680;2023-05-14T00:45:38;12.13;;;6.75;;
43457;SDS011;29046;54.184;18.680;2023-05-14T00:48:06;8.80;;;5.43;;
43457;SDS011;29046;54.184;18.680;2023-05-14T00:50:34;12.13;;;5.25;;
43457;SDS011;29046;54.184;18.680;2023-05-14T00:53:01;16.48;;;7.03;;
43457;SDS011;29046;54.184;18.680;2023-05-14T00:55:30;16.23;;;6.28;;
43457;SDS011;29046;54.184;18.680;2023-05-14T00:57:57;9.70;;;5.55;;
43457;SDS011;29046;54.184;18.680;2023-05-14T01:00:25;10.77;;;5.32;;
43457;SDS011;29046;54.184;18.680;2023-05-14T01:02:53;10.05;;;5.32;;
43457;SDS011;29046;54.184;18.680;2023-05-14T01:05:21;10.80;;;5.40;;
43457;SDS011;29046;54.184;18.680;2023-05-14T01:10:23;12.52;;;4.75;;
43457;SDS011;29046;54.184;18.680;2023-05-14T01:15:39;7.65;;;4.50;;
43457;SDS011;29046;54.184;18.680;2023-05-14T01:18:09;7.57;;;4.85;;
43457;SDS011;29046;54.184;18.680;2023-05-14T01:20:36;13.90;;;5.40;;
43457;SDS011;29046;54.184;18.680;2023-05-14T01:23:04;11.35;;;5.32;;
43457;SDS011;29046;54.184;18.680;2023-05-14T01:25:31;13.25;;;5.28;;
43457;SDS011;29046;54.184;18.680;2023-05-14T01:28:07;12.25;;;5.50;;
43457;SDS011;29046;54.184;18.680;2023-05-14T01:33:08;11.65;;;5.35;;
43457;SDS011;29046;54.184;18.680;2023-05-14T01:35:36;13.98;;;5.53;;
43457;SDS011;29046;54.184;18.680;2023-05-14T01:38:05;13.57;;;5.97;;
43457;SDS011;29046;54.184;18.680;2023-05-14T01:40:33;10.43;;;5.30;;
43457;SDS011;29046;54.184;18.680;2023-05-14T01:43:02;8.15;;;4.40;;
43457;SDS011;29046;54.184;18.680;2023-05-14T01:45:30;13.43;;;5.28;;
43457;SDS011;29046;54.184;18.680;2023-05-14T01:47:57;14.20;;;5.85;;
43457;SDS011;29046;54.184;18.680;2023-05-14T01:50:25;15.18;;;5.30;;
43457;SDS011;29046;54.184;18.680;2023-05-14T01:52:52;11.73;;;5.50;;
43457;SDS011;29046;54.184;18.680;2023-05-14T01:55:22;9.57;;;5.40;;
43457;SDS011;29046;54.184;18.680;2023-05-14T01:57:52;10.48;;;5.07;;
43457;SDS011;29046;54.184;18.680;2023-05-14T02:00:21;15.68;;;6.47;;
43457;SDS011;29046;54.184;18.680;2023-05-14T02:02:50;18.90;;;7.80;;
43457;SDS011;29046;54.184;18.680;2023-05-14T02:05:18;10.65;;;5.88;;
43457;SDS011;29046;54.184;18.680;2023-05-14T02:07:45;12.07;;;5.07;;
43457;SDS011;29046;54.184;18.680;2023-05-14T02:10:12;13.07;;;5.93;;
43457;SDS011;29046;54.184;18.680;2023-05-14T02:12:40;10.00;;;5.00;;
43457;SDS011;29046;54.184;18.680;2023-05-14T02:15:07;11.68;;;5.15;;
43457;SDS011;29046;54.184;18.680;2023-05-14T02:17:36;9.05;;;5.78;;
43457;SDS011;29046;54.184;18.680;2023-05-14T02:20:04;17.35;;;6.60;;
43457;SDS011;29046;54.184;18.680;2023-05-14T02:22:32;6.72;;;5.13;;
43457;SDS011;29046;54.184;18.680;2023-05-14T02:24:59;11.45;;;5.57;;
43457;SDS011;29046;54.184;18.680;2023-05-14T02:27:27;11.27;;;5.72;;
43457;SDS011;29046;54.184;18.680;2023-05-14T02:29:55;7.20;;;5.32;;
43457;SDS011;29046;54.184;18.680;2023-05-14T02:32:26;14.38;;;6.28;;
43457;SDS011;29046;54.184;18.680;2023-05-14T02:34:54;20.95;;;6.32;;
43457;SDS011;29046;54.184;18.680;2023-05-14T02:37:21;12.50;;;6.40;;
43457;SDS011;29046;54.184;18.680;2023-05-14T02:39:49;11.15;;;6.40;;
43457;SDS011;29046;54.184;18.680;2023-05-14T02:42:16;16.17;;;5.97;;
43457;SDS011;29046;54.184;18.680;2023-05-14T02:44:44;10.95;;;6.45;;
43457;SDS011;29046;54.184;18.680;2023-05-14T02:47:11;14.52;;;6.22;;
43457;SDS011;29046;54.184;18.680;2023-05-14T02:49:39;8.35;;;5.78;;
43457;SDS011;29046;54.184;18.680;2023-05-14T02:52:06;11.60;;;6.05;;
43457;SDS011;29046;54.184;18.680;2023-05-14T02:54:34;10.50;;;6.20;;
43457;SDS011;29046;54.184;18.680;2023-05-14T02:57:01;11.90;;;6.95;;
43457;SDS011;29046;54.184;18.680;2023-05-14T02:59:29;10.38;;;5.50;;
43457;SDS011;29046;54.184;18.680;2023-05-14T03:01:57;11.13;;;5.97;;
43457;SDS011;29046;54.184;18.680;2023-05-14T03:04:25;8.57;;;5.95;;
43457;SDS011;29046;54.184;18.680;2023-05-14T03:06:52;13.30;;;7.35;;
43457;SDS011;29046;54.184;18.680;2023-05-14T03:09:20;28.83;;;11.00;;
43457;SDS011;29046;54.184;18.680;2023-05-14T03:11:48;24.48;;;10.88;;
43457;SDS011;29046;54.184;18.680;2023-05-14T03:14:16;19.88;;;8.68;;
43457;SDS011;29046;54.184;18.680;2023-05-14T03:16:43;18.40;;;8.90;;
43457;SDS011;29046;54.184;18.680;2023-05-14T03:19:11;19.50;;;8.90;;
43457;SDS011;29046;54.184;18.680;2023-05-14T03:21:38;18.30;;;9.27;;
43457;SDS011;29046;54.184;18.680;2023-05-14T03:24:06;18.85;;;8.57;;
43457;SDS011;29046;54.184;18.680;2023-05-14T03:26:33;23.13;;;8.95;;
43457;SDS011;29046;54.184;18.680;2023-05-14T03:29:01;17.55;;;8.23;;
43457;SDS011;29046;54.184;18.680;2023-05-14T03:31:29;14.43;;;7.25;;
43457;SDS011;29046;54.184;18.680;2023-05-14T03:33:57;19.70;;;6.60;;
43457;SDS011;29046;54.184;18.680;2023-05-14T03:36:24;13.02;;;5.90;;
43457;SDS011;29046;54.184;18.680;2023-05-14T03:38:52;10.32;;;5.88;;
43457;SDS011;29046;54.184;18.680;2023-05-14T03:41:19;13.38;;;6.00;;
43457;SDS011;29046;54.184;18.680;2023-05-14T03:43:48;11.30;;;5.20;;
43457;SDS011;29046;54.184;18.680;2023-05-14T03:46:15;12.80;;;6.13;;
43457;SDS011;29046;54.184;18.680;2023-05-14T03:48:43;15.90;;;7.00;;
43457;SDS011;29046;54.184;18.680;2023-05-14T03:51:10;13.45;;;6.68;;
43457;SDS011;29046;54.184;18.680;2023-05-14T03:53:38;18.63;;;8.73;;
43457;SDS011;29046;54.184;18.680;2023-05-14T03:56:06;23.73;;;8.30;;
43457;SDS011;29046;54.184;18.680;2023-05-14T03:58:34;18.52;;;7.93;;
43457;SDS011;29046;54.184;18.680;2023-05-14T04:01:01;24.08;;;8.35;;
43457;SDS011;29046;54.184;18.680;2023-05-14T04:03:29;29.15;;;9.40;;
43457;SDS011;29046;54.184;18.680;2023-05-14T04:05:57;23.52;;;9.43;;
43457;SDS011;29046;54.184;18.680;2023-05-14T04:08:25;18.25;;;7.45;;
43457;SDS011;29046;54.184;18.680;2023-05-14T04:10:52;18.35;;;6.90;;
43457;SDS011;29046;54.184;18.680;2023-05-14T04:13:20;22.30;;;7.97;;
43457;SDS011;29046;54.184;18.680;2023-05-14T04:15:47;22.58;;;7.50;;
43457;SDS011;29046;54.184;18.680;2023-05-14T04:18:15;14.73;;;6.10;;
43457;SDS011;29046;54.184;18.680;2023-05-14T04:20:42;11.75;;;5.97;;
43457;SDS011;29046;54.184;18.680;2023-05-14T04:23:10;13.93;;;6.05;;
43457;SDS011;29046;54.184;18.680;2023-05-14T04:25:38;15.13;;;6.30;;
43457;SDS011;29046;54.184;18.680;2023-05-14T04:28:05;13.80;;;6.40;;
43457;SDS011;29046;54.184;18.680;2023-05-14T04:30:33;10.38;;;5.72;;
43457;SDS011;29046;54.184;18.680;2023-05-14T04:33:01;15.30;;;6.75;;
43457;SDS011;29046;54.184;18.680;2023-05-14T04:35:29;16.70;;;6.50;;
43457;SDS011;29046;54.184;18.680;2023-05-14T04:37:57;16.88;;;7.68;;
43457;SDS011;29046;54.184;18.680;2023-05-14T04:40:24;10.02;;;5.95;;
43457;SDS011;29046;54.184;18.680;2023-05-14T04:42:52;9.80;;;5.57;;
43457;SDS011;29046;54.184;18.680;2023-05-14T04:45:19;11.98;;;5.55;;
43457;SDS011;29046;54.184;18.680;2023-05-14T04:47:47;13.10;;;5.22;;
43457;SDS011;29046;54.184;18.680;2023-05-14T04:50:15;19.13;;;6.00;;
43457;SDS011;29046;54.184;18.680;2023-05-14T04:52:42;26.17;;;6.93;;
43457;SDS011;29046;54.184;18.680;2023-05-14T04:55:10;11.55;;;4.95;;
43457;SDS011;29046;54.184;18.680;2023-05-14T04:57:37;8.82;;;5.47;;
43457;SDS011;29046;54.184;18.680;2023-05-14T05:00:05;10.23;;;5.85;;
43457;SDS011;29046;54.184;18.680;2023-05-14T05:02:33;10.98;;;5.35;;
43457;SDS011;29046;54.184;18.680;2023-05-14T05:05:01;12.52;;;6.00;;
43457;SDS011;29046;54.184;18.680;2023-05-14T05:07:29;7.75;;;5.18;;
43457;SDS011;29046;54.184;18.680;2023-05-14T05:09:57;13.32;;;5.72;;
43457;SDS011;29046;54.184;18.680;2023-05-14T05:12:26;9.70;;;5.28;;
43457;SDS011;29046;54.184;18.680;2023-05-14T05:14:55;7.03;;;4.90;;
43457;SDS011;29046;54.184;18.680;2023-05-14T05:17:23;8.80;;;4.95;;
43457;SDS011;29046;54.184;18.680;2023-05-14T05:19:51;12.13;;;5.47;;
43457;SDS011;29046;54.184;18.680;2023-05-14T05:22:18;9.75;;;5.55;;
43457;SDS011;29046;54.184;18.680;2023-05-14T05:24:46;10.30;;;5.68;;
43457;SDS011;29046;54.184;18.680;2023-05-14T05:27:15;12.15;;;5.80;;
43457;SDS011;29046;54.184;18.680;2023-05-14T05:29:43;9.48;;;5.50;;
43457;SDS011;29046;54.184;18.680;2023-05-14T05:32:11;10.93;;;5.93;;
43457;SDS011;29046;54.184;18.680;2023-05-14T05:34:40;10.77;;;5.78;;
43457;SDS011;29046;54.184;18.680;2023-05-14T05:37:07;9.85;;;6.10;;
43457;SDS011;29046;54.184;18.680;2023-05-14T05:39:38;8.95;;;5.82;;
43457;SDS011;29046;54.184;18.680;2023-05-14T05:42:06;13.82;;;5.85;;
43457;SDS011;29046;54.184;18.680;2023-05-14T05:44:33;8.48;;;5.70;;
43457;SDS011;29046;54.184;18.680;2023-05-14T05:47:01;10.20;;;5.68;;
43457;SDS011;29046;54.184;18.680;2023-05-14T05:49:28;15.93;;;6.25;;
43457;SDS011;29046;54.184;18.680;2023-05-14T05:51:56;10.55;;;5.55;;
43457;SDS011;29046;54.184;18.680;2023-05-14T05:54:23;8.40;;;6.13;;
43457;SDS011;29046;54.184;18.680;2023-05-14T05:56:52;18.48;;;5.32;;
43457;SDS011;29046;54.184;18.680;2023-05-14T05:59:20;11.75;;;5.50;;
43457;SDS011;29046;54.184;18.680;2023-05-14T06:01:47;8.18;;;5.55;;
43457;SDS011;29046;54.184;18.680;2023-05-14T06:04:15;12.70;;;5.93;;
43457;SDS011;29046;54.184;18.680;2023-05-14T06:06:42;11.77;;;6.53;;
43457;SDS011;29046;54.184;18.680;2023-05-14T06:09:10;8.10;;;5.57;;
43457;SDS011;29046;54.184;18.680;2023-05-14T06:11:38;8.82;;;5.70;;
43457;SDS011;29046;54.184;18.680;2023-05-14T06:14:06;10.48;;;5.35;;
43457;SDS011;29046;54.184;18.680;2023-05-14T06:16:33;11.73;;;6.85;;
43457;SDS011;29046;54.184;18.680;2023-05-14T06:19:01;9.60;;;5.38;;
43457;SDS011;29046;54.184;18.680;2023-05-14T06:21:28;14.20;;;5.93;;
43457;SDS011;29046;54.184;18.680;2023-05-14T06:23:56;12.63;;;5.47;;
43457;SDS011;29046;54.184;18.680;2023-05-14T06:26:23;12.88;;;5.60;;
43457;SDS011;29046;54.184;18.680;2023-05-14T06:28:51;15.60;;;5.75;;
43457;SDS011;29046;54.184;18.680;2023-05-14T06:31:19;13.52;;;6.03;;
43457;SDS011;29046;54.184;18.680;2023-05-14T06:33:46;10.35;;;5.57;;
43457;SDS011;29046;54.184;18.680;2023-05-14T06:36:14;7.55;;;5.60;;
43457;SDS011;29046;54.184;18.680;2023-05-14T06:38:41;8.77;;;5.15;;
43457;SDS011;29046;54.184;18.680;2023-05-14T06:41:09;7.47;;;5.35;;
43457;SDS011;29046;54.184;18.680;2023-05-14T06:43:36;14.65;;;5.65;;
43457;SDS011;29046;54.184;18.680;2023-05-14T06:46:04;10.30;;;5.93;;
43457;SDS011;29046;54.184;18.680;2023-05-14T06:48:32;14.13;;;5.55;;
43457;SDS011;29046;54.184;18.680;2023-05-14T06:51:00;9.00;;;5.32;;
43457;SDS011;29046;54.184;18.680;2023-05-14T06:53:28;11.43;;;5.47;;
43457;SDS011;29046;54.184;18.680;2023-05-14T06:55:56;10.18;;;5.40;;
43457;SDS011;29046;54.184;18.680;2023-05-14T06:58:24;8.95;;;5.35;;
43457;SDS011;29046;54.184;18.680;2023-05-14T07:00:52;8.60;;;5.38;;
43457;SDS011;29046;54.184;18.680;2023-05-14T07:03:19;10.52;;;4.93;;
43457;SDS011;29046;54.184;18.680;2023-05-14T07:05:47;12.90;;;4.93;;
43457;SDS011;29046;54.184;18.680;2023-05-14T07:08:15;8.07;;;5.35;;
43457;SDS011;29046;54.184;18.680;2023-05-14T07:10:42;9.88;;;4.68;;
43457;SDS011;29046;54.184;18.680;2023-05-14T07:13:10;10.85;;;5.63;;
43457;SDS011;29046;54.184;18.680;2023-05-14T07:15:37;9.40;;;5.13;;
43457;SDS011;29046;54.184;18.680;2023-05-14T07:18:05;6.93;;;4.60;;
43457;SDS011;29046;54.184;18.680;2023-05-14T07:20:32;8.80;;;5.35;;
43457;SDS011;29046;54.184;18.680;2023-05-14T07:23:00;8.75;;;4.72;;
43457;SDS011;29046;54.184;18.680;2023-05-14T07:25:27;5.85;;;4.65;;
43457;SDS011;29046;54.184;18.680;2023-05-14T07:27:55;13.52;;;5.18;;
43457;SDS011;29046;54.184;18.680;2023-05-14T07:30:23;7.88;;;5.80;;
43457;SDS011;29046;54.184;18.680;2023-05-14T07:32:51;6.80;;;5.18;;
43457;SDS011;29046;54.184;18.680;2023-05-14T07:35:18;9.20;;;4.65;;
43457;SDS011;29046;54.184;18.680;2023-05-14T07:37:46;6.22;;;4.80;;
43457;SDS011;29046;54.184;18.680;2023-05-14T07:40:14;10.68;;;5.63;;
43457;SDS011;29046;54.184;18.680;2023-05-14T07:42:41;6.88;;;4.97;;
43457;SDS011;29046;54.184;18.680;2023-05-14T07:45:09;6.65;;;5.57;;
43457;SDS011;29046;54.184;18.680;2023-05-14T07:47:37;6.97;;;5.28;;
43457;SDS011;29046;54.184;18.680;2023-05-14T07:50:06;8.18;;;5.18;;
43457;SDS011;29046;54.184;18.680;2023-05-14T07:52:34;10.60;;;4.88;;
43457;SDS011;29046;54.184;18.680;2023-05-14T07:55:02;6.28;;;4.95;;
43457;SDS011;29046;54.184;18.680;2023-05-14T07:57:29;11.73;;;5.57;;
43457;SDS011;29046;54.184;18.680;2023-05-14T07:59:57;7.32;;;5.22;;
43457;SDS011;29046;54.184;18.680;2023-05-14T08:02:24;11.13;;;5.82;;
43457;SDS011;29046;54.184;18.680;2023-05-14T08:04:52;9.23;;;5.13;;
43457;SDS011;29046;54.184;18.680;2023-05-14T08:07:19;9.13;;;5.45;;
43457;SDS011;29046;54.184;18.680;2023-05-14T08:09:47;11.70;;;5.30;;
43457;SDS011;29046;54.184;18.680;2023-05-14T08:12:15;7.32;;;5.05;;
43457;SDS011;29046;54.184;18.680;2023-05-14T08:14:43;5.05;;;4.55;;
43457;SDS011;29046;54.184;18.680;2023-05-14T08:17:10;6.80;;;4.72;;
43457;SDS011;29046;54.184;18.680;2023-05-14T08:19:38;6.78;;;5.35;;
43457;SDS011;29046;54.184;18.680;2023-05-14T08:22:06;9.05;;;5.60;;
43457;SDS011;29046;54.184;18.680;2023-05-14T08:24:34;7.57;;;4.50;;
43457;SDS011;29046;54.184;18.680;2023-05-14T08:27:01;6.15;;;4.18;;
43457;SDS011;29046;54.184;18.680;2023-05-14T08:29:29;5.55;;;4.13;;
43457;SDS011;29046;54.184;18.680;2023-05-14T08:31:56;8.35;;;4.57;;
43457;SDS011;29046;54.184;18.680;2023-05-14T08:34:31;9.63;;;5.00;;
43457;SDS011;29046;54.184;18.680;2023-05-14T08:36:58;10.45;;;5.40;;
43457;SDS011;29046;54.184;18.680;2023-05-14T08:39:26;8.38;;;4.20;;
43457;SDS011;29046;54.184;18.680;2023-05-14T08:41:54;6.00;;;4.45;;
43457;SDS011;29046;54.184;18.680;2023-05-14T08:44:31;9.57;;;4.22;;
43457;SDS011;29046;54.184;18.680;2023-05-14T08:46:59;6.53;;;4.15;;
43457;SDS011;29046;54.184;18.680;2023-05-14T08:52:03;5.53;;;4.00;;
43457;SDS011;29046;54.184;18.680;2023-05-14T08:54:31;8.55;;;3.85;;
43457;SDS011;29046;54.184;18.680;2023-05-14T08:56:59;5.78;;;3.45;;
43457;SDS011;29046;54.184;18.680;2023-05-14T08:59:27;7.10;;;3.60;;
43457;SDS011;29046;54.184;18.680;2023-05-14T09:01:55;10.73;;;3.90;;
43457;SDS011;29046;54.184;18.680;2023-05-14T09:04:23;4.93;;;3.63;;
43457;SDS011;29046;54.184;18.680;2023-05-14T09:06:51;6.30;;;3.80;;
43457;SDS011;29046;54.184;18.680;2023-05-14T09:09:19;6.78;;;4.00;;
43457;SDS011;29046;54.184;18.680;2023-05-14T09:11:51;6.50;;;4.05;;
43457;SDS011;29046;54.184;18.680;2023-05-14T09:14:19;6.38;;;3.75;;
43457;SDS011;29046;54.184;18.680;2023-05-14T09:16:47;6.50;;;4.20;;
43457;SDS011;29046;54.184;18.680;2023-05-14T09:19:16;8.70;;;3.88;;
43457;SDS011;29046;54.184;18.680;2023-05-14T09:21:47;5.97;;;3.88;;
43457;SDS011;29046;54.184;18.680;2023-05-14T09:24:23;7.20;;;3.72;;
43457;SDS011;29046;54.184;18.680;2023-05-14T09:26:51;6.53;;;4.10;;
43457;SDS011;29046;54.184;18.680;2023-05-14T09:29:19;4.60;;;3.70;;
43457;SDS011;29046;54.184;18.680;2023-05-14T09:31:48;3.95;;;3.40;;
43457;SDS011;29046;54.184;18.680;2023-05-14T09:34:26;6.78;;;3.75;;
43457;SDS011;29046;54.184;18.680;2023-05-14T09:36:58;8.30;;;3.95;;
43457;SDS011;29046;54.184;18.680;2023-05-14T09:39:27;9.52;;;3.53;;
43457;SDS011;29046;54.184;18.680;2023-05-14T09:41:54;5.80;;;3.70;;
43457;SDS011;29046;54.184;18.680;2023-05-14T09:44:24;5.80;;;3.40;;
43457;SDS011;29046;54.184;18.680;2023-05-14T09:46:52;10.15;;;3.88;;
43457;SDS011;29046;54.184;18.680;2023-05-14T09:49:20;8.23;;;4.13;;
43457;SDS011;29046;54.184;18.680;2023-05-14T09:51:48;6.30;;;3.63;;
43457;SDS011;29046;54.184;18.680;2023-05-14T09:54:16;10.30;;;3.22;;
43457;SDS011;29046;54.184;18.680;2023-05-14T09:56:43;5.65;;;3.40;;
43457;SDS011;29046;54.184;18.680;2023-05-14T09:59:12;5.00;;;3.83;;
43457;SDS011;29046;54.184;18.680;2023-05-14T10:01:40;4.78;;;3.50;;
43457;SDS011;29046;54.184;18.680;2023-05-14T10:04:09;6.53;;;3.35;;
43457;SDS011;29046;54.184;18.680;2023-05-14T10:06:38;3.85;;;3.08;;
43457;SDS011;29046;54.184;18.680;2023-05-14T10:09:11;8.48;;;3.78;;
43457;SDS011;29046;54.184;18.680;2023-05-14T10:11:41;8.38;;;3.38;;
43457;SDS011;29046;54.184;18.680;2023-05-14T10:17:15;6.95;;;3.45;;
43457;SDS011;29046;54.184;18.680;2023-05-14T10:19:49;8.88;;;3.92;;
43457;SDS011;29046;54.184;18.680;2023-05-14T10:22:21;5.20;;;3.15;;
43457;SDS011;29046;54.184;18.680;2023-05-14T10:24:49;6.75;;;3.22;;
43457;SDS011;29046;54.184;18.680;2023-05-14T10:27:21;5.45;;;3.40;;
43457;SDS011;29046;54.184;18.680;2023-05-14T10:29:52;6.78;;;3.35;;
43457;SDS011;29046;54.184;18.680;2023-05-14T10:32:21;4.32;;;2.92;;
43457;SDS011;29046;54.184;18.680;2023-05-14T10:34:52;6.97;;;3.97;;
43457;SDS011;29046;54.184;18.680;2023-05-14T10:37:25;5.55;;;3.35;;
43457;SDS011;29046;54.184;18.680;2023-05-14T10:39:57;5.78;;;3.25;;
43457;SDS011;29046;54.184;18.680;2023-05-14T10:42:32;7.88;;;3.10;;
43457;SDS011;29046;54.184;18.680;2023-05-14T10:45:06;8.27;;;3.33;;
43457;SDS011;29046;54.184;18.680;2023-05-14T10:47:35;5.63;;;3.38;;
43457;SDS011;29046;54.184;18.680;2023-05-14T10:50:04;4.07;;;3.42;;
43457;SDS011;29046;54.184;18.680;2023-05-14T10:52:32;7.28;;;3.28;;
43457;SDS011;29046;54.184;18.680;2023-05-14T10:55:02;3.55;;;2.60;;
43457;SDS011;29046;54.184;18.680;2023-05-14T10:57:30;4.82;;;2.80;;
43457;SDS011;29046;54.184;18.680;2023-05-14T10:59:59;6.78;;;2.70;;
43457;SDS011;29046;54.184;18.680;2023-05-14T11:05:04;9.27;;;2.85;;
43457;SDS011;29046;54.184;18.680;2023-05-14T11:07:37;6.28;;;3.30;;
43457;SDS011;29046;54.184;18.680;2023-05-14T11:10:09;9.88;;;5.43;;
43457;SDS011;29046;54.184;18.680;2023-05-14T11:12:37;3.58;;;3.03;;
43457;SDS011;29046;54.184;18.680;2023-05-14T11:15:07;5.07;;;2.85;;
43457;SDS011;29046;54.184;18.680;2023-05-14T11:17:35;3.80;;;2.72;;
43457;SDS011;29046;54.184;18.680;2023-05-14T11:20:03;3.90;;;2.28;;
43457;SDS011;29046;54.184;18.680;2023-05-14T11:22:32;5.65;;;2.50;;
43457;SDS011;29046;54.184;18.680;2023-05-14T11:25:00;3.55;;;2.63;;
43457;SDS011;29046;54.184;18.680;2023-05-14T11:27:28;3.75;;;2.33;;
43457;SDS011;29046;54.184;18.680;2023-05-14T11:29:56;8.10;;;3.38;;
43457;SDS011;29046;54.184;18.680;2023-05-14T11:32:24;6.50;;;3.78;;
43457;SDS011;29046;54.184;18.680;2023-05-14T11:34:52;6.40;;;3.70;;
43457;SDS011;29046;54.184;18.680;2023-05-14T11:37:19;15.02;;;8.43;;
43457;SDS011;29046;54.184;18.680;2023-05-14T11:39:48;8.98;;;4.72;;
43457;SDS011;29046;54.184;18.680;2023-05-14T11:42:16;7.65;;;4.25;;
43457;SDS011;29046;54.184;18.680;2023-05-14T11:44:45;7.25;;;3.70;;
43457;SDS011;29046;54.184;18.680;2023-05-14T11:47:15;8.38;;;3.60;;
43457;SDS011;29046;54.184;18.680;2023-05-14T11:49:43;6.88;;;4.05;;
43457;SDS011;29046;54.184;18.680;2023-05-14T11:52:11;6.63;;;3.97;;
43457;SDS011;29046;54.184;18.680;2023-05-14T11:54:42;4.68;;;3.72;;
43457;SDS011;29046;54.184;18.680;2023-05-14T11:57:10;8.07;;;5.07;;
43457;SDS011;29046;54.184;18.680;2023-05-14T11:59:38;9.38;;;3.80;;
43457;SDS011;29046;54.184;18.680;2023-05-14T12:02:10;7.30;;;3.60;;
43457;SDS011;29046;54.184;18.680;2023-05-14T12:04:38;4.97;;;3.58;;
43457;SDS011;29046;54.184;18.680;2023-05-14T12:07:08;6.03;;;3.53;;
43457;SDS011;29046;54.184;18.680;2023-05-14T12:09:36;5.85;;;4.05;;
43457;SDS011;29046;54.184;18.680;2023-05-14T12:12:08;5.63;;;3.35;;
43457;SDS011;29046;54.184;18.680;2023-05-14T12:14:37;10.77;;;4.38;;
43457;SDS011;29046;54.184;18.680;2023-05-14T12:17:12;9.82;;;5.47;;
43457;SDS011;29046;54.184;18.680;2023-05-14T12:19:40;6.25;;;3.85;;
43457;SDS011;29046;54.184;18.680;2023-05-14T12:22:09;4.63;;;3.35;;
43457;SDS011;29046;54.184;18.680;2023-05-14T12:24:37;8.60;;;4.15;;
43457;SDS011;29046;54.184;18.680;2023-05-14T12:27:05;10.32;;;4.30;;
43457;SDS011;29046;54.184;18.680;2023-05-14T12:29:37;14.35;;;3.95;;
43457;SDS011;29046;54.184;18.680;2023-05-14T12:32:08;8.00;;;3.45;;
43457;SDS011;29046;54.184;18.680;2023-05-14T12:34:36;10.30;;;4.50;;
43457;SDS011;29046;54.184;18.680;2023-05-14T12:37:05;9.15;;;4.63;;
43457;SDS011;29046;54.184;18.680;2023-05-14T12:39:33;9.15;;;4.10;;
43457;SDS011;29046;54.184;18.680;2023-05-14T12:42:01;8.43;;;4.18;;
43457;SDS011;29046;54.184;18.680;2023-05-14T12:44:28;6.80;;;3.97;;
43457;SDS011;29046;54.184;18.680;2023-05-14T12:46:56;7.50;;;3.60;;
43457;SDS011;29046;54.184;18.680;2023-05-14T12:49:24;6.28;;;3.80;;
43457;SDS011;29046;54.184;18.680;2023-05-14T12:51:51;7.95;;;4.53;;
43457;SDS011;29046;54.184;18.680;2023-05-14T12:54:39;14.95;;;5.78;;
43457;SDS011;29046;54.184;18.680;2023-05-14T12:57:08;6.82;;;4.03;;
43457;SDS011;29046;54.184;18.680;2023-05-14T12:59:36;10.68;;;3.97;;
43457;SDS011;29046;54.184;18.680;2023-05-14T13:02:04;12.77;;;4.45;;
43457;SDS011;29046;54.184;18.680;2023-05-14T13:04:31;5.88;;;3.53;;
43457;SDS011;29046;54.184;18.680;2023-05-14T13:06:59;6.18;;;3.85;;
43457;SDS011;29046;54.184;18.680;2023-05-14T13:09:27;10.63;;;3.88;;
43457;SDS011;29046;54.184;18.680;2023-05-14T13:11:54;7.45;;;3.67;;
43457;SDS011;29046;54.184;18.680;2023-05-14T13:14:22;5.65;;;3.35;;
43457;SDS011;29046;54.184;18.680;2023-05-14T13:16:49;8.43;;;3.28;;
43457;SDS011;29046;54.184;18.680;2023-05-14T13:19:17;8.30;;;3.55;;
43457;SDS011;29046;54.184;18.680;2023-05-14T13:21:44;6.38;;;3.65;;
43457;SDS011;29046;54.184;18.680;2023-05-14T13:24:12;12.00;;;3.60;;
43457;SDS011;29046;54.184;18.680;2023-05-14T13:26:39;9.93;;;3.08;;
43457;SDS011;29046;54.184;18.680;2023-05-14T13:29:07;7.63;;;3.47;;
43457;SDS011;29046;54.184;18.680;2023-05-14T13:31:34;13.55;;;3.80;;
43457;SDS011;29046;54.184;18.680;2023-05-14T13:34:02;5.07;;;2.70;;
43457;SDS011;29046;54.184;18.680;2023-05-14T13:36:29;8.55;;;2.92;;
43457;SDS011;29046;54.184;18.680;2023-05-14T13:38:57;6.15;;;2.30;;
43457;SDS011;29046;54.184;18.680;2023-05-14T13:41:25;7.80;;;2.90;;
43457;SDS011;29046;54.184;18.680;2023-05-14T13:43:52;5.85;;;2.47;;
43457;SDS011;29046;54.184;18.680;2023-05-14T13:46:20;4.53;;;2.53;;
43457;SDS011;29046;54.184;18.680;2023-05-14T13:48:48;3.83;;;2.33;;
43457;SDS011;29046;54.184;18.680;2023-05-14T13:51:15;7.07;;;3.33;;
43457;SDS011;29046;54.184;18.680;2023-05-14T13:53:43;2.58;;;2.20;;
43457;SDS011;29046;54.184;18.680;2023-05-14T13:56:10;7.70;;;2.70;;
43457;SDS011;29046;54.184;18.680;2023-05-14T13:58:38;7.22;;;2.10;;
43457;SDS011;29046;54.184;18.680;2023-05-14T14:01:05;7.88;;;2.13;;
43457;SDS011;29046;54.184;18.680;2023-05-14T14:03:33;4.15;;;1.90;;
43457;SDS011;29046;54.184;18.680;2023-05-14T14:06:00;2.75;;;1.80;;
43457;SDS011;29046;54.184;18.680;2023-05-14T14:08:28;3.38;;;2.22;;
43457;SDS011;29046;54.184;18.680;2023-05-14T14:10:56;7.80;;;2.92;;
43457;SDS011;29046;54.184;18.680;2023-05-14T14:13:24;4.45;;;2.33;;
43457;SDS011;29046;54.184;18.680;2023-05-14T14:15:51;3.40;;;2.17;;
43457;SDS011;29046;54.184;18.680;2023-05-14T14:18:19;9.38;;;2.10;;
43457;SDS011;29046;54.184;18.680;2023-05-14T14:20:46;5.32;;;2.42;;
43457;SDS011;29046;54.184;18.680;2023-05-14T14:23:14;4.38;;;2.42;;
43457;SDS011;29046;54.184;18.680;2023-05-14T14:25:42;4.63;;;2.30;;
43457;SDS011;29046;54.184;18.680;2023-05-14T14:28:09;3.08;;;1.80;;
43457;SDS011;29046;54.184;18.680;2023-05-14T14:30:37;3.28;;;2.20;;
43457;SDS011;29046;54.184;18.680;2023-05-14T14:33:04;4.18;;;2.13;;
43457;SDS011;29046;54.184;18.680;2023-05-14T14:35:32;5.50;;;2.08;;
43457;SDS011;29046;54.184;18.680;2023-05-14T14:38:00;5.57;;;2.45;;
43457;SDS011;29046;54.184;18.680;2023-05-14T14:40:28;6.18;;;2.70;;
43457;SDS011;29046;54.184;18.680;2023-05-14T14:42:55;5.80;;;2.60;;
43457;SDS011;29046;54.184;18.680;2023-05-14T14:45:23;5.22;;;2.80;;
43457;SDS011;29046;54.184;18.680;2023-05-14T14:47:51;5.97;;;3.15;;
43457;SDS011;29046;54.184;18.680;2023-05-14T14:50:39;3.80;;;2.53;;